sensor_id;sensor_type;location;lat;lon;timestamp;P1;durP1;ratioP1;P2;durP2;ratioP2
25870;SDS011;13689;48.590;7.752;2023-09-07T00:02:19;6.85;;;3.25;;
25870;SDS011;13689;48.590;7.752;2023-09-07T00:04:45;4.05;;;3.10;;
25870;SDS011;13689;48.590;7.752;2023-09-07T00:07:10;5.32;;;2.97;;
25870;SDS011;13689;48.590;7.752;2023-09-07T00:09:37;6.03;;;3.55;;
25870;SDS011;13689;48.590;7.752;2023-09-07T00:12:03;5.30;;;3.38;;
25870;SDS011;13689;48.590;7.752;2023-09-07T00:14:28;6.13;;;2.92;;
25870;SDS011;13689;48.590;7.752;2023-09-07T00:16:54;7.65;;;3.42;;
25870;SDS011;13689;48.590;7.752;2023-09-07T00:19:19;5.57;;;3.20;;
25870;SDS011;13689;48.590;7.752;2023-09-07T00:21:45;4.95;;;3.03;;
25870;SDS011;13689;48.590;7.752;2023-09-07T00:24:10;5.45;;;3.20;;
25870;SDS011;13689;48.590;7.752;2023-09-07T00:26:36;7.55;;;3.40;;
25870;SDS011;13689;48.590;7.752;2023-09-07T00:29:01;4.72;;;3.10;;
25870;SDS011;13689;48.590;7.752;2023-09-07T00:31:28;7.25;;;3.33;;
25870;SDS011;13689;48.590;7.752;2023-09-07T00:33:54;4.53;;;3.00;;
25870;SDS011;13689;48.590;7.752;2023-09-07T00:36:19;7.57;;;3.10;;
25870;SDS011;13689;48.590;7.752;2023-09-07T00:38:45;4.55;;;3.00;;
25870;SDS011;13689;48.590;7.752;2023-09-07T00:43:38;5.28;;;2.95;;
25870;SDS011;13689;48.590;7.752;2023-09-07T00:48:31;5.13;;;3.25;;
25870;SDS011;13689;48.590;7.752;2023-09-07T00:50:57;5.97;;;2.90;;
25870;SDS011;13689;48.590;7.752;2023-09-07T00:53:22;9.13;;;3.35;;
25870;SDS011;13689;48.590;7.752;2023-09-07T00:55:50;3.70;;;3.13;;
25870;SDS011;13689;48.590;7.752;2023-09-07T00:58:15;3.53;;;3.08;;
25870;SDS011;13689;48.590;7.752;2023-09-07T01:00:41;5.55;;;3.30;;
25870;SDS011;13689;48.590;7.752;2023-09-07T01:03:07;6.13;;;3.17;;
25870;SDS011;13689;48.590;7.752;2023-09-07T01:05:41;6.13;;;3.53;;
25870;SDS011;13689;48.590;7.752;2023-09-07T01:08:29;4.35;;;3.35;;
25870;SDS011;13689;48.590;7.752;2023-09-07T01:11:00;7.03;;;3.00;;
25870;SDS011;13689;48.590;7.752;2023-09-07T01:13:26;4.20;;;3.25;;
25870;SDS011;13689;48.590;7.752;2023-09-07T01:15:51;4.85;;;3.47;;
25870;SDS011;13689;48.590;7.752;2023-09-07T01:18:17;4.85;;;3.70;;
25870;SDS011;13689;48.590;7.752;2023-09-07T01:20:44;5.53;;;3.60;;
25870;SDS011;13689;48.590;7.752;2023-09-07T01:23:12;5.72;;;3.05;;
25870;SDS011;13689;48.590;7.752;2023-09-07T01:25:39;8.60;;;3.50;;
25870;SDS011;13689;48.590;7.752;2023-09-07T01:28:06;5.55;;;2.92;;
25870;SDS011;13689;48.590;7.752;2023-09-07T01:30:34;8.40;;;3.40;;
25870;SDS011;13689;48.590;7.752;2023-09-07T01:33:00;5.55;;;3.25;;
25870;SDS011;13689;48.590;7.752;2023-09-07T01:35:27;6.55;;;3.33;;
25870;SDS011;13689;48.590;7.752;2023-09-07T01:37:53;3.53;;;3.22;;
25870;SDS011;13689;48.590;7.752;2023-09-07T01:40:18;4.00;;;3.10;;
25870;SDS011;13689;48.590;7.752;2023-09-07T01:42:44;7.10;;;3.13;;
25870;SDS011;13689;48.590;7.752;2023-09-07T01:45:09;3.85;;;3.40;;
25870;SDS011;13689;48.590;7.752;2023-09-07T01:47:35;4.38;;;3.30;;
25870;SDS011;13689;48.590;7.752;2023-09-07T01:50:01;5.03;;;3.72;;
25870;SDS011;13689;48.590;7.752;2023-09-07T01:52:26;8.25;;;3.45;;
25870;SDS011;13689;48.590;7.752;2023-09-07T01:54:52;6.55;;;3.40;;
25870;SDS011;13689;48.590;7.752;2023-09-07T01:57:17;8.93;;;3.30;;
25870;SDS011;13689;48.590;7.752;2023-09-07T01:59:43;5.53;;;3.10;;
25870;SDS011;13689;48.590;7.752;2023-09-07T02:02:08;4.88;;;3.53;;
25870;SDS011;13689;48.590;7.752;2023-09-07T02:04:34;5.13;;;3.30;;
25870;SDS011;13689;48.590;7.752;2023-09-07T02:06:59;4.82;;;3.53;;
25870;SDS011;13689;48.590;7.752;2023-09-07T02:09:25;4.93;;;3.10;;
25870;SDS011;13689;48.590;7.752;2023-09-07T02:11:51;4.40;;;3.22;;
25870;SDS011;13689;48.590;7.752;2023-09-07T02:14:16;8.50;;;3.10;;
25870;SDS011;13689;48.590;7.752;2023-09-07T02:16:42;8.15;;;3.38;;
25870;SDS011;13689;48.590;7.752;2023-09-07T02:19:07;3.78;;;3.13;;
25870;SDS011;13689;48.590;7.752;2023-09-07T02:21:33;6.68;;;3.58;;
25870;SDS011;13689;48.590;7.752;2023-09-07T02:23:59;3.95;;;3.30;;
25870;SDS011;13689;48.590;7.752;2023-09-07T02:26:24;3.85;;;3.10;;
25870;SDS011;13689;48.590;7.752;2023-09-07T02:28:50;7.45;;;3.85;;
25870;SDS011;13689;48.590;7.752;2023-09-07T02:31:16;6.63;;;3.28;;
25870;SDS011;13689;48.590;7.752;2023-09-07T02:33:42;5.10;;;3.22;;
25870;SDS011;13689;48.590;7.752;2023-09-07T02:36:07;4.70;;;3.67;;
25870;SDS011;13689;48.590;7.752;2023-09-07T02:38:33;7.60;;;4.25;;
25870;SDS011;13689;48.590;7.752;2023-09-07T02:40:58;8.52;;;3.55;;
25870;SDS011;13689;48.590;7.752;2023-09-07T02:43:24;7.90;;;3.60;;
25870;SDS011;13689;48.590;7.752;2023-09-07T02:45:50;7.57;;;3.38;;
25870;SDS011;13689;48.590;7.752;2023-09-07T02:48:15;5.22;;;3.95;;
25870;SDS011;13689;48.590;7.752;2023-09-07T02:50:41;5.50;;;3.72;;
25870;SDS011;13689;48.590;7.752;2023-09-07T02:53:07;6.65;;;3.97;;
25870;SDS011;13689;48.590;7.752;2023-09-07T02:55:33;4.65;;;3.65;;
25870;SDS011;13689;48.590;7.752;2023-09-07T02:58:02;4.90;;;3.78;;
25870;SDS011;13689;48.590;7.752;2023-09-07T03:00:28;6.18;;;3.42;;
25870;SDS011;13689;48.590;7.752;2023-09-07T03:02:54;5.32;;;4.13;;
25870;SDS011;13689;48.590;7.752;2023-09-07T03:05:19;6.75;;;4.20;;
25870;SDS011;13689;48.590;7.752;2023-09-07T03:07:45;12.05;;;4.00;;
25870;SDS011;13689;48.590;7.752;2023-09-07T03:10:12;7.50;;;4.07;;
25870;SDS011;13689;48.590;7.752;2023-09-07T03:12:38;4.68;;;3.72;;
25870;SDS011;13689;48.590;7.752;2023-09-07T03:15:04;8.15;;;4.30;;
25870;SDS011;13689;48.590;7.752;2023-09-07T03:17:30;9.60;;;4.28;;
25870;SDS011;13689;48.590;7.752;2023-09-07T03:19:55;6.38;;;3.72;;
25870;SDS011;13689;48.590;7.752;2023-09-07T03:22:24;7.70;;;4.00;;
25870;SDS011;13689;48.590;7.752;2023-09-07T03:24:50;8.52;;;4.15;;
25870;SDS011;13689;48.590;7.752;2023-09-07T03:27:16;4.30;;;3.50;;
25870;SDS011;13689;48.590;7.752;2023-09-07T03:29:44;5.82;;;3.60;;
25870;SDS011;13689;48.590;7.752;2023-09-07T03:32:09;6.25;;;4.45;;
25870;SDS011;13689;48.590;7.752;2023-09-07T03:34:35;5.55;;;3.83;;
25870;SDS011;13689;48.590;7.752;2023-09-07T03:37:01;4.55;;;3.88;;
25870;SDS011;13689;48.590;7.752;2023-09-07T03:39:27;8.90;;;4.57;;
25870;SDS011;13689;48.590;7.752;2023-09-07T03:41:53;9.77;;;4.30;;
25870;SDS011;13689;48.590;7.752;2023-09-07T03:44:19;6.32;;;4.40;;
25870;SDS011;13689;48.590;7.752;2023-09-07T03:46:44;7.05;;;4.45;;
25870;SDS011;13689;48.590;7.752;2023-09-07T03:49:10;7.20;;;4.35;;
25870;SDS011;13689;48.590;7.752;2023-09-07T03:51:35;5.55;;;4.05;;
25870;SDS011;13689;48.590;7.752;2023-09-07T03:54:01;7.13;;;4.10;;
25870;SDS011;13689;48.590;7.752;2023-09-07T03:56:26;8.68;;;4.38;;
25870;SDS011;13689;48.590;7.752;2023-09-07T03:58:52;7.18;;;4.32;;
25870;SDS011;13689;48.590;7.752;2023-09-07T04:01:18;7.50;;;4.63;;
25870;SDS011;13689;48.590;7.752;2023-09-07T04:03:43;8.95;;;4.65;;
25870;SDS011;13689;48.590;7.752;2023-09-07T04:06:09;7.38;;;4.70;;
25870;SDS011;13689;48.590;7.752;2023-09-07T04:08:34;5.93;;;4.43;;
25870;SDS011;13689;48.590;7.752;2023-09-07T04:11:04;7.22;;;4.57;;
25870;SDS011;13689;48.590;7.752;2023-09-07T04:13:30;5.00;;;4.07;;
25870;SDS011;13689;48.590;7.752;2023-09-07T04:15:57;5.80;;;3.92;;
25870;SDS011;13689;48.590;7.752;2023-09-07T04:18:22;6.75;;;4.65;;
25870;SDS011;13689;48.590;7.752;2023-09-07T04:20:48;8.32;;;4.70;;
25870;SDS011;13689;48.590;7.752;2023-09-07T04:23:13;6.13;;;4.47;;
25870;SDS011;13689;48.590;7.752;2023-09-07T04:25:39;8.15;;;4.70;;
25870;SDS011;13689;48.590;7.752;2023-09-07T04:28:05;8.00;;;4.50;;
25870;SDS011;13689;48.590;7.752;2023-09-07T04:30:32;6.65;;;4.57;;
25870;SDS011;13689;48.590;7.752;2023-09-07T04:33:02;4.93;;;3.67;;
25870;SDS011;13689;48.590;7.752;2023-09-07T04:35:30;7.60;;;4.68;;
25870;SDS011;13689;48.590;7.752;2023-09-07T04:37:57;7.15;;;4.57;;
25870;SDS011;13689;48.590;7.752;2023-09-07T04:40:23;7.05;;;4.68;;
25870;SDS011;13689;48.590;7.752;2023-09-07T04:42:49;10.73;;;4.50;;
25870;SDS011;13689;48.590;7.752;2023-09-07T04:45:15;5.75;;;4.35;;
25870;SDS011;13689;48.590;7.752;2023-09-07T04:47:41;6.30;;;4.75;;
25870;SDS011;13689;48.590;7.752;2023-09-07T04:50:06;6.40;;;3.92;;
25870;SDS011;13689;48.590;7.752;2023-09-07T04:52:32;6.57;;;4.40;;
25870;SDS011;13689;48.590;7.752;2023-09-07T04:54:59;5.32;;;4.10;;
25870;SDS011;13689;48.590;7.752;2023-09-07T04:57:25;8.65;;;4.38;;
25870;SDS011;13689;48.590;7.752;2023-09-07T04:59:50;5.80;;;4.30;;
25870;SDS011;13689;48.590;7.752;2023-09-07T05:02:16;11.38;;;4.93;;
25870;SDS011;13689;48.590;7.752;2023-09-07T05:04:42;9.63;;;4.22;;
25870;SDS011;13689;48.590;7.752;2023-09-07T05:07:08;10.15;;;4.60;;
25870;SDS011;13689;48.590;7.752;2023-09-07T05:09:33;7.68;;;4.55;;
25870;SDS011;13689;48.590;7.752;2023-09-07T05:11:59;6.10;;;4.20;;
25870;SDS011;13689;48.590;7.752;2023-09-07T05:14:24;8.45;;;3.97;;
25870;SDS011;13689;48.590;7.752;2023-09-07T05:16:50;11.07;;;4.15;;
25870;SDS011;13689;48.590;7.752;2023-09-07T05:19:16;8.18;;;4.80;;
25870;SDS011;13689;48.590;7.752;2023-09-07T05:21:42;7.88;;;4.70;;
25870;SDS011;13689;48.590;7.752;2023-09-07T05:24:07;6.35;;;4.75;;
25870;SDS011;13689;48.590;7.752;2023-09-07T05:26:33;7.53;;;4.75;;
25870;SDS011;13689;48.590;7.752;2023-09-07T05:28:59;5.97;;;4.43;;
25870;SDS011;13689;48.590;7.752;2023-09-07T05:31:24;7.32;;;4.72;;
25870;SDS011;13689;48.590;7.752;2023-09-07T05:33:50;9.02;;;4.28;;
25870;SDS011;13689;48.590;7.752;2023-09-07T05:36:17;7.28;;;4.78;;
25870;SDS011;13689;48.590;7.752;2023-09-07T05:38:42;6.43;;;5.30;;
25870;SDS011;13689;48.590;7.752;2023-09-07T05:41:08;11.25;;;4.97;;
25870;SDS011;13689;48.590;7.752;2023-09-07T05:43:34;8.48;;;4.50;;
25870;SDS011;13689;48.590;7.752;2023-09-07T05:45:59;10.15;;;4.45;;
25870;SDS011;13689;48.590;7.752;2023-09-07T05:48:25;13.00;;;4.75;;
25870;SDS011;13689;48.590;7.752;2023-09-07T05:50:51;6.38;;;4.40;;
25870;SDS011;13689;48.590;7.752;2023-09-07T05:53:18;11.50;;;4.78;;
25870;SDS011;13689;48.590;7.752;2023-09-07T05:55:45;8.13;;;5.03;;
25870;SDS011;13689;48.590;7.752;2023-09-07T05:58:12;8.68;;;4.63;;
25870;SDS011;13689;48.590;7.752;2023-09-07T06:00:40;7.80;;;4.90;;
25870;SDS011;13689;48.590;7.752;2023-09-07T06:03:07;6.07;;;3.95;;
25870;SDS011;13689;48.590;7.752;2023-09-07T06:05:34;5.57;;;4.78;;
25870;SDS011;13689;48.590;7.752;2023-09-07T06:08:01;8.18;;;5.35;;
25870;SDS011;13689;48.590;7.752;2023-09-07T06:10:28;7.40;;;4.80;;
25870;SDS011;13689;48.590;7.752;2023-09-07T06:12:54;8.23;;;4.53;;
25870;SDS011;13689;48.590;7.752;2023-09-07T06:15:20;7.53;;;4.20;;
25870;SDS011;13689;48.590;7.752;2023-09-07T06:17:46;8.07;;;4.18;;
25870;SDS011;13689;48.590;7.752;2023-09-07T06:20:11;6.65;;;4.07;;
25870;SDS011;13689;48.590;7.752;2023-09-07T06:22:37;6.20;;;4.05;;
25870;SDS011;13689;48.590;7.752;2023-09-07T06:25:13;9.15;;;4.35;;
25870;SDS011;13689;48.590;7.752;2023-09-07T06:27:46;5.50;;;3.90;;
25870;SDS011;13689;48.590;7.752;2023-09-07T06:30:19;8.18;;;4.22;;
25870;SDS011;13689;48.590;7.752;2023-09-07T06:32:45;4.32;;;3.80;;
25870;SDS011;13689;48.590;7.752;2023-09-07T06:35:12;9.23;;;4.13;;
25870;SDS011;13689;48.590;7.752;2023-09-07T06:37:38;8.52;;;4.68;;
25870;SDS011;13689;48.590;7.752;2023-09-07T06:40:06;9.55;;;4.40;;
25870;SDS011;13689;48.590;7.752;2023-09-07T06:42:32;6.28;;;3.95;;
25870;SDS011;13689;48.590;7.752;2023-09-07T06:44:57;5.38;;;3.72;;
25870;SDS011;13689;48.590;7.752;2023-09-07T06:47:23;9.20;;;3.78;;
25870;SDS011;13689;48.590;7.752;2023-09-07T06:49:49;6.55;;;5.20;;
25870;SDS011;13689;48.590;7.752;2023-09-07T06:52:14;8.13;;;4.68;;
25870;SDS011;13689;48.590;7.752;2023-09-07T06:54:40;8.07;;;3.85;;
25870;SDS011;13689;48.590;7.752;2023-09-07T06:57:06;3.67;;;3.28;;
25870;SDS011;13689;48.590;7.752;2023-09-07T06:59:33;8.15;;;4.00;;
25870;SDS011;13689;48.590;7.752;2023-09-07T07:01:59;7.32;;;3.83;;
25870;SDS011;13689;48.590;7.752;2023-09-07T07:04:25;7.95;;;4.00;;
25870;SDS011;13689;48.590;7.752;2023-09-07T07:06:51;9.77;;;3.60;;
25870;SDS011;13689;48.590;7.752;2023-09-07T07:09:16;6.03;;;3.95;;
25870;SDS011;13689;48.590;7.752;2023-09-07T07:11:42;6.68;;;3.60;;
25870;SDS011;13689;48.590;7.752;2023-09-07T07:14:08;10.18;;;3.75;;
25870;SDS011;13689;48.590;7.752;2023-09-07T07:16:35;7.35;;;4.18;;
25870;SDS011;13689;48.590;7.752;2023-09-07T07:19:01;11.35;;;4.05;;
25870;SDS011;13689;48.590;7.752;2023-09-07T07:21:26;5.55;;;3.75;;
25870;SDS011;13689;48.590;7.752;2023-09-07T07:23:52;12.73;;;3.95;;
25870;SDS011;13689;48.590;7.752;2023-09-07T07:26:18;9.45;;;3.47;;
25870;SDS011;13689;48.590;7.752;2023-09-07T07:28:43;8.02;;;3.70;;
25870;SDS011;13689;48.590;7.752;2023-09-07T07:31:09;8.25;;;3.75;;
25870;SDS011;13689;48.590;7.752;2023-09-07T07:33:35;8.93;;;3.75;;
25870;SDS011;13689;48.590;7.752;2023-09-07T07:36:02;10.10;;;3.80;;
25870;SDS011;13689;48.590;7.752;2023-09-07T07:38:28;9.35;;;3.53;;
25870;SDS011;13689;48.590;7.752;2023-09-07T07:40:54;18.13;;;3.60;;
25870;SDS011;13689;48.590;7.752;2023-09-07T07:43:19;12.60;;;3.30;;
25870;SDS011;13689;48.590;7.752;2023-09-07T07:45:45;3.30;;;2.90;;
25870;SDS011;13689;48.590;7.752;2023-09-07T07:48:10;6.72;;;3.05;;
25870;SDS011;13689;48.590;7.752;2023-09-07T07:50:37;9.95;;;3.40;;
25870;SDS011;13689;48.590;7.752;2023-09-07T07:53:04;13.98;;;4.35;;
25870;SDS011;13689;48.590;7.752;2023-09-07T07:55:33;7.05;;;3.15;;
25870;SDS011;13689;48.590;7.752;2023-09-07T07:58:04;9.13;;;3.15;;
25870;SDS011;13689;48.590;7.752;2023-09-07T08:02:56;11.63;;;3.63;;
25870;SDS011;13689;48.590;7.752;2023-09-07T08:05:21;11.15;;;3.40;;
25870;SDS011;13689;48.590;7.752;2023-09-07T08:07:47;6.72;;;3.67;;
25870;SDS011;13689;48.590;7.752;2023-09-07T08:10:13;6.15;;;3.22;;
25870;SDS011;13689;48.590;7.752;2023-09-07T08:12:38;4.13;;;2.90;;
25870;SDS011;13689;48.590;7.752;2023-09-07T08:15:04;4.60;;;3.15;;
25870;SDS011;13689;48.590;7.752;2023-09-07T08:17:30;2.95;;;2.38;;
25870;SDS011;13689;48.590;7.752;2023-09-07T08:19:56;7.75;;;2.90;;
25870;SDS011;13689;48.590;7.752;2023-09-07T08:22:22;4.47;;;2.75;;
25870;SDS011;13689;48.590;7.752;2023-09-07T08:24:47;6.38;;;3.08;;
25870;SDS011;13689;48.590;7.752;2023-09-07T08:27:13;5.00;;;3.00;;
25870;SDS011;13689;48.590;7.752;2023-09-07T08:29:43;12.57;;;3.70;;
25870;SDS011;13689;48.590;7.752;2023-09-07T08:32:13;9.90;;;4.15;;
25870;SDS011;13689;48.590;7.752;2023-09-07T08:34:39;9.80;;;3.17;;
25870;SDS011;13689;48.590;7.752;2023-09-07T08:39:33;5.50;;;3.55;;
25870;SDS011;13689;48.590;7.752;2023-09-07T08:41:59;8.02;;;3.20;;
25870;SDS011;13689;48.590;7.752;2023-09-07T08:44:26;6.82;;;2.83;;
25870;SDS011;13689;48.590;7.752;2023-09-07T08:46:53;6.70;;;2.70;;
25870;SDS011;13689;48.590;7.752;2023-09-07T08:49:19;5.00;;;2.85;;
25870;SDS011;13689;48.590;7.752;2023-09-07T08:51:45;5.40;;;3.28;;
25870;SDS011;13689;48.590;7.752;2023-09-07T08:54:11;5.47;;;2.33;;
25870;SDS011;13689;48.590;7.752;2023-09-07T08:56:37;3.70;;;2.75;;
25870;SDS011;13689;48.590;7.752;2023-09-07T08:59:03;9.00;;;2.92;;
25870;SDS011;13689;48.590;7.752;2023-09-07T09:01:32;11.25;;;2.90;;
25870;SDS011;13689;48.590;7.752;2023-09-07T09:03:58;4.47;;;2.55;;
25870;SDS011;13689;48.590;7.752;2023-09-07T09:06:24;9.48;;;2.60;;
25870;SDS011;13689;48.590;7.752;2023-09-07T09:08:50;4.85;;;2.67;;
25870;SDS011;13689;48.590;7.752;2023-09-07T09:11:19;5.28;;;2.78;;
25870;SDS011;13689;48.590;7.752;2023-09-07T09:13:45;11.20;;;3.10;;
25870;SDS011;13689;48.590;7.752;2023-09-07T09:16:12;10.93;;;2.88;;
25870;SDS011;13689;48.590;7.752;2023-09-07T09:18:38;5.37;;;2.80;;
25870;SDS011;13689;48.590;7.752;2023-09-07T09:21:13;5.10;;;2.65;;
25870;SDS011;13689;48.590;7.752;2023-09-07T09:23:39;5.13;;;2.70;;
25870;SDS011;13689;48.590;7.752;2023-09-07T09:26:06;6.40;;;3.25;;
25870;SDS011;13689;48.590;7.752;2023-09-07T09:28:32;3.83;;;2.63;;
25870;SDS011;13689;48.590;7.752;2023-09-07T09:30:59;4.05;;;2.90;;
25870;SDS011;13689;48.590;7.752;2023-09-07T09:33:26;4.70;;;3.40;;
25870;SDS011;13689;48.590;7.752;2023-09-07T09:35:54;3.25;;;2.95;;
25870;SDS011;13689;48.590;7.752;2023-09-07T09:38:21;4.93;;;2.90;;
25870;SDS011;13689;48.590;7.752;2023-09-07T09:40:47;7.97;;;2.83;;
25870;SDS011;13689;48.590;7.752;2023-09-07T09:43:13;9.95;;;3.20;;
25870;SDS011;13689;48.590;7.752;2023-09-07T09:45:38;6.07;;;2.70;;
25870;SDS011;13689;48.590;7.752;2023-09-07T09:48:05;6.60;;;3.17;;
25870;SDS011;13689;48.590;7.752;2023-09-07T09:50:31;5.75;;;2.65;;
25870;SDS011;13689;48.590;7.752;2023-09-07T09:53:02;5.93;;;2.60;;
25870;SDS011;13689;48.590;7.752;2023-09-07T09:55:34;6.80;;;2.67;;
25870;SDS011;13689;48.590;7.752;2023-09-07T09:58:00;5.25;;;3.00;;
25870;SDS011;13689;48.590;7.752;2023-09-07T10:00:26;2.88;;;2.42;;
25870;SDS011;13689;48.590;7.752;2023-09-07T10:03:04;4.88;;;2.40;;
25870;SDS011;13689;48.590;7.752;2023-09-07T10:05:33;6.15;;;2.70;;
25870;SDS011;13689;48.590;7.752;2023-09-07T10:08:03;6.45;;;3.00;;
25870;SDS011;13689;48.590;7.752;2023-09-07T10:10:36;5.90;;;2.75;;
25870;SDS011;13689;48.590;7.752;2023-09-07T10:13:03;4.80;;;2.55;;
25870;SDS011;13689;48.590;7.752;2023-09-07T10:15:29;6.40;;;2.35;;
25870;SDS011;13689;48.590;7.752;2023-09-07T10:23:18;3.60;;;2.28;;
25870;SDS011;13689;48.590;7.752;2023-09-07T10:25:51;2.97;;;2.33;;
25870;SDS011;13689;48.590;7.752;2023-09-07T10:28:19;3.10;;;2.75;;
25870;SDS011;13689;48.590;7.752;2023-09-07T10:31:12;4.38;;;2.42;;
25870;SDS011;13689;48.590;7.752;2023-09-07T10:33:39;6.22;;;2.30;;
25870;SDS011;13689;48.590;7.752;2023-09-07T10:36:05;4.50;;;2.17;;
25870;SDS011;13689;48.590;7.752;2023-09-07T10:38:35;3.30;;;2.30;;
25870;SDS011;13689;48.590;7.752;2023-09-07T10:41:02;2.80;;;2.50;;
25870;SDS011;13689;48.590;7.752;2023-09-07T10:43:29;5.35;;;2.55;;
25870;SDS011;13689;48.590;7.752;2023-09-07T10:45:56;4.30;;;2.55;;
25870;SDS011;13689;48.590;7.752;2023-09-07T10:48:26;2.83;;;2.43;;
25870;SDS011;13689;48.590;7.752;2023-09-07T10:50:54;3.35;;;2.10;;
25870;SDS011;13689;48.590;7.752;2023-09-07T10:55:56;4.82;;;2.65;;
25870;SDS011;13689;48.590;7.752;2023-09-07T10:58:24;4.65;;;2.42;;
25870;SDS011;13689;48.590;7.752;2023-09-07T11:01:00;4.80;;;2.70;;
25870;SDS011;13689;48.590;7.752;2023-09-07T11:03:28;6.10;;;2.70;;
25870;SDS011;13689;48.590;7.752;2023-09-07T11:06:01;5.78;;;2.90;;
25870;SDS011;13689;48.590;7.752;2023-09-07T11:08:30;3.33;;;2.33;;
25870;SDS011;13689;48.590;7.752;2023-09-07T11:10:56;3.15;;;2.45;;
25870;SDS011;13689;48.590;7.752;2023-09-07T11:13:23;3.38;;;2.50;;
25870;SDS011;13689;48.590;7.752;2023-09-07T11:15:52;4.18;;;2.88;;
25870;SDS011;13689;48.590;7.752;2023-09-07T11:18:20;3.42;;;2.50;;
25870;SDS011;13689;48.590;7.752;2023-09-07T11:20:49;5.80;;;3.20;;
25870;SDS011;13689;48.590;7.752;2023-09-07T11:23:16;6.07;;;3.00;;
25870;SDS011;13689;48.590;7.752;2023-09-07T11:25:43;3.67;;;2.90;;
25870;SDS011;13689;48.590;7.752;2023-09-07T11:28:09;5.35;;;3.05;;
25870;SDS011;13689;48.590;7.752;2023-09-07T11:30:47;9.73;;;2.47;;
25870;SDS011;13689;48.590;7.752;2023-09-07T11:33:15;6.82;;;2.92;;
25870;SDS011;13689;48.590;7.752;2023-09-07T11:35:41;4.85;;;2.72;;
25870;SDS011;13689;48.590;7.752;2023-09-07T11:38:06;3.38;;;2.65;;
25870;SDS011;13689;48.590;7.752;2023-09-07T11:40:35;5.60;;;3.05;;
25870;SDS011;13689;48.590;7.752;2023-09-07T11:43:00;4.88;;;3.00;;
25870;SDS011;13689;48.590;7.752;2023-09-07T11:45:26;3.90;;;2.60;;
25870;SDS011;13689;48.590;7.752;2023-09-07T11:47:52;9.70;;;2.75;;
25870;SDS011;13689;48.590;7.752;2023-09-07T11:50:18;3.45;;;2.55;;
25870;SDS011;13689;48.590;7.752;2023-09-07T11:52:47;6.80;;;2.70;;
25870;SDS011;13689;48.590;7.752;2023-09-07T11:55:15;4.63;;;2.78;;
25870;SDS011;13689;48.590;7.752;2023-09-07T11:57:41;8.27;;;2.80;;
25870;SDS011;13689;48.590;7.752;2023-09-07T12:00:07;5.10;;;2.65;;
25870;SDS011;13689;48.590;7.752;2023-09-07T12:02:36;4.80;;;2.95;;
25870;SDS011;13689;48.590;7.752;2023-09-07T12:05:05;4.60;;;2.42;;
25870;SDS011;13689;48.590;7.752;2023-09-07T12:07:33;4.75;;;2.65;;
25870;SDS011;13689;48.590;7.752;2023-09-07T12:09:59;7.63;;;2.83;;
25870;SDS011;13689;48.590;7.752;2023-09-07T12:12:24;1.98;;;1.70;;
25870;SDS011;13689;48.590;7.752;2023-09-07T12:14:50;5.95;;;2.83;;
25870;SDS011;13689;48.590;7.752;2023-09-07T12:17:15;3.42;;;2.45;;
25870;SDS011;13689;48.590;7.752;2023-09-07T12:19:41;9.15;;;2.83;;
25870;SDS011;13689;48.590;7.752;2023-09-07T12:22:07;4.85;;;3.00;;
25870;SDS011;13689;48.590;7.752;2023-09-07T12:24:33;4.53;;;2.72;;
25870;SDS011;13689;48.590;7.752;2023-09-07T12:26:59;2.45;;;2.10;;
25870;SDS011;13689;48.590;7.752;2023-09-07T12:29:27;3.25;;;2.50;;
25870;SDS011;13689;48.590;7.752;2023-09-07T12:31:52;5.30;;;2.90;;
25870;SDS011;13689;48.590;7.752;2023-09-07T12:34:18;6.70;;;2.92;;
25870;SDS011;13689;48.590;7.752;2023-09-07T12:36:43;5.70;;;2.72;;
25870;SDS011;13689;48.590;7.752;2023-09-07T12:39:09;7.20;;;2.67;;
25870;SDS011;13689;48.590;7.752;2023-09-07T12:41:37;5.40;;;2.97;;
25870;SDS011;13689;48.590;7.752;2023-09-07T12:44:03;3.83;;;2.53;;
25870;SDS011;13689;48.590;7.752;2023-09-07T12:46:30;4.45;;;2.55;;
25870;SDS011;13689;48.590;7.752;2023-09-07T12:48:56;8.07;;;3.07;;
25870;SDS011;13689;48.590;7.752;2023-09-07T12:51:22;7.13;;;2.80;;
25870;SDS011;13689;48.590;7.752;2023-09-07T12:53:47;4.18;;;2.95;;
25870;SDS011;13689;48.590;7.752;2023-09-07T12:56:13;4.07;;;2.15;;
25870;SDS011;13689;48.590;7.752;2023-09-07T12:58:40;9.40;;;2.55;;
25870;SDS011;13689;48.590;7.752;2023-09-07T13:01:06;7.53;;;3.10;;
25870;SDS011;13689;48.590;7.752;2023-09-07T13:03:35;4.18;;;2.70;;
25870;SDS011;13689;48.590;7.752;2023-09-07T13:06:02;8.77;;;3.72;;
25870;SDS011;13689;48.590;7.752;2023-09-07T13:08:28;7.90;;;3.38;;
25870;SDS011;13689;48.590;7.752;2023-09-07T13:10:54;4.87;;;2.73;;
25870;SDS011;13689;48.590;7.752;2023-09-07T13:13:20;8.07;;;2.80;;
25870;SDS011;13689;48.590;7.752;2023-09-07T13:15:47;4.13;;;2.75;;
25870;SDS011;13689;48.590;7.752;2023-09-07T13:18:13;6.57;;;2.90;;
25870;SDS011;13689;48.590;7.752;2023-09-07T13:20:38;6.47;;;3.00;;
25870;SDS011;13689;48.590;7.752;2023-09-07T13:23:04;5.57;;;3.15;;
25870;SDS011;13689;48.590;7.752;2023-09-07T13:25:30;6.72;;;3.25;;
25870;SDS011;13689;48.590;7.752;2023-09-07T13:27:56;4.15;;;2.97;;
25870;SDS011;13689;48.590;7.752;2023-09-07T13:30:22;4.55;;;3.25;;
25870;SDS011;13689;48.590;7.752;2023-09-07T13:32:47;6.50;;;3.38;;
25870;SDS011;13689;48.590;7.752;2023-09-07T13:35:15;3.30;;;2.70;;
25870;SDS011;13689;48.590;7.752;2023-09-07T13:37:40;7.95;;;3.05;;
25870;SDS011;13689;48.590;7.752;2023-09-07T13:40:06;4.63;;;3.28;;
25870;SDS011;13689;48.590;7.752;2023-09-07T13:42:32;3.92;;;2.85;;
25870;SDS011;13689;48.590;7.752;2023-09-07T13:44:58;3.67;;;2.90;;
25870;SDS011;13689;48.590;7.752;2023-09-07T13:47:24;5.38;;;2.95;;
25870;SDS011;13689;48.590;7.752;2023-09-07T13:49:49;8.10;;;2.97;;
25870;SDS011;13689;48.590;7.752;2023-09-07T13:52:15;8.00;;;2.50;;
25870;SDS011;13689;48.590;7.752;2023-09-07T13:54:40;5.05;;;2.70;;
25870;SDS011;13689;48.590;7.752;2023-09-07T13:57:06;3.63;;;2.63;;
25870;SDS011;13689;48.590;7.752;2023-09-07T13:59:32;5.63;;;3.15;;
25870;SDS011;13689;48.590;7.752;2023-09-07T14:01:59;3.63;;;2.63;;
25870;SDS011;13689;48.590;7.752;2023-09-07T14:04:25;6.10;;;3.20;;
25870;SDS011;13689;48.590;7.752;2023-09-07T14:06:51;5.07;;;3.10;;
25870;SDS011;13689;48.590;7.752;2023-09-07T14:09:17;5.82;;;2.90;;
25870;SDS011;13689;48.590;7.752;2023-09-07T14:11:43;7.63;;;2.63;;
25870;SDS011;13689;48.590;7.752;2023-09-07T14:14:09;4.07;;;2.55;;
25870;SDS011;13689;48.590;7.752;2023-09-07T14:16:35;9.30;;;3.13;;
25870;SDS011;13689;48.590;7.752;2023-09-07T14:19:01;6.55;;;3.70;;
25870;SDS011;13689;48.590;7.752;2023-09-07T14:21:26;7.97;;;3.20;;
25870;SDS011;13689;48.590;7.752;2023-09-07T14:23:52;6.72;;;3.22;;
25870;SDS011;13689;48.590;7.752;2023-09-07T14:26:18;4.13;;;2.80;;
25870;SDS011;13689;48.590;7.752;2023-09-07T14:28:43;4.93;;;2.70;;
25870;SDS011;13689;48.590;7.752;2023-09-07T14:31:09;5.88;;;2.97;;
25870;SDS011;13689;48.590;7.752;2023-09-07T14:33:35;10.80;;;2.72;;
25870;SDS011;13689;48.590;7.752;2023-09-07T14:36:06;6.10;;;2.80;;
25870;SDS011;13689;48.590;7.752;2023-09-07T14:38:32;4.72;;;2.50;;
25870;SDS011;13689;48.590;7.752;2023-09-07T14:41:04;5.85;;;3.10;;
25870;SDS011;13689;48.590;7.752;2023-09-07T14:43:30;3.05;;;2.50;;
25870;SDS011;13689;48.590;7.752;2023-09-07T14:45:56;5.00;;;2.75;;
25870;SDS011;13689;48.590;7.752;2023-09-07T14:48:21;3.33;;;2.75;;
25870;SDS011;13689;48.590;7.752;2023-09-07T14:50:48;3.33;;;2.88;;
25870;SDS011;13689;48.590;7.752;2023-09-07T14:53:13;5.13;;;3.30;;
25870;SDS011;13689;48.590;7.752;2023-09-07T14:55:39;4.28;;;2.92;;
25870;SDS011;13689;48.590;7.752;2023-09-07T14:58:05;4.05;;;2.90;;
25870;SDS011;13689;48.590;7.752;2023-09-07T15:00:33;4.13;;;3.47;;
25870;SDS011;13689;48.590;7.752;2023-09-07T15:02:59;6.38;;;3.10;;